createdAt,value
2022-12-11T00:02:01.401Z,-1.96
2022-12-11T00:04:29.219Z,-1.98
2022-12-11T00:06:58.535Z,-2.02
2022-12-11T00:09:26.425Z,-2.12
2022-12-11T00:11:54.268Z,-2.05
2022-12-11T00:14:22.069Z,-2.19
2022-12-11T00:16:50.179Z,-2.09
2022-12-11T00:19:18.134Z,-2.15
2022-12-11T00:21:45.884Z,-2.07
2022-12-11T00:24:15.265Z,-2.07
2022-12-11T00:26:42.829Z,-2.17
2022-12-11T00:29:14.512Z,-2.14
2022-12-11T00:31:45.804Z,-2.21
2022-12-11T00:34:13.720Z,-2.18
2022-12-11T00:36:41.520Z,-2.17
2022-12-11T00:39:09.324Z,-2.15
2022-12-11T00:41:38.507Z,-2.22
2022-12-11T00:44:06.482Z,-2.24
2022-12-11T00:46:34.265Z,-2.27
2022-12-11T00:49:02.114Z,-2.26
2022-12-11T00:51:30.296Z,-2.20
2022-12-11T00:53:58.056Z,-2.12
2022-12-11T00:56:25.930Z,-2.21
2022-12-11T00:58:55.375Z,-2.12
2022-12-11T01:01:25.225Z,-2.11
2022-12-11T01:03:53.896Z,-2.01
2022-12-11T01:06:25.188Z,-1.98
2022-12-11T01:09:14.346Z,-1.95
2022-12-11T01:11:42.732Z,-1.91
2022-12-11T01:14:13.243Z,-2.03
2022-12-11T01:16:41.065Z,-1.95
2022-12-11T01:19:08.921Z,-2.11
2022-12-11T01:21:36.654Z,-2.09
2022-12-11T01:24:04.886Z,-2.07
2022-12-11T01:26:32.756Z,-1.69
2022-12-11T01:29:01.338Z,-1.44
2022-12-11T01:31:30.636Z,-1.80
2022-12-11T01:33:58.400Z,-2.03
2022-12-11T01:36:26.179Z,-2.07
2022-12-11T01:38:54.508Z,-1.90
2022-12-11T01:41:22.729Z,-1.78
2022-12-11T01:44:02.375Z,-1.98
2022-12-11T01:46:33.756Z,-2.03
2022-12-11T01:49:03.476Z,-2.01
2022-12-11T01:51:34.298Z,-1.96
2022-12-11T01:54:07.437Z,-1.94
2022-12-11T01:56:37.946Z,-1.95
2022-12-11T01:59:09.432Z,-1.97
2022-12-11T02:01:42.385Z,-1.98
2022-12-11T02:04:11.391Z,-1.64
2022-12-11T02:06:41.508Z,-1.02
2022-12-11T02:09:12.086Z,-0.84
2022-12-11T02:11:49.038Z,-0.72
2022-12-11T02:14:27.847Z,-1.30
2022-12-11T02:17:02.073Z,-1.54
2022-12-11T02:19:45.980Z,-1.63
2022-12-11T02:22:20.487Z,-1.65
2022-12-11T02:25:04.617Z,-1.75
2022-12-11T02:27:40.803Z,-1.82
2022-12-11T02:30:12.229Z,-1.85
2022-12-11T02:32:46.784Z,-1.88
2022-12-11T02:35:20.691Z,-1.89
2022-12-11T02:37:52.654Z,-1.95
2022-12-11T02:40:25.952Z,-1.91
2022-12-11T02:42:57.058Z,-1.92
2022-12-11T02:45:28.408Z,-1.91
2022-12-11T02:47:59.685Z,-1.89
2022-12-11T02:50:29.274Z,-1.84
2022-12-11T02:53:00.749Z,-1.84
2022-12-11T02:55:31.076Z,-1.56
2022-12-11T02:58:05.045Z,-1.55
2022-12-11T03:00:34.643Z,-1.61
2022-12-11T03:03:02.909Z,-1.72
2022-12-11T03:05:30.986Z,-1.70
2022-12-11T03:07:59.066Z,-1.74
2022-12-11T03:10:26.896Z,-1.73
2022-12-11T03:12:57.202Z,-1.82
2022-12-11T03:15:33.412Z,-1.81
2022-12-11T03:18:10.118Z,-1.82
2022-12-11T03:20:42.597Z,-1.90
2022-12-11T03:23:18.657Z,-1.87
2022-12-11T03:25:54.564Z,-1.78
2022-12-11T03:28:28.362Z,-1.83
2022-12-11T03:30:58.114Z,-1.81
2022-12-11T03:33:32.520Z,-1.97
2022-12-11T03:36:04.805Z,-1.84
2022-12-11T03:38:37.646Z,-1.86
2022-12-11T03:41:08.873Z,-1.94
2022-12-11T03:43:38.432Z,-1.94
2022-12-11T03:46:09.222Z,-1.88
2022-12-11T03:48:41.802Z,-1.83
2022-12-11T03:51:10.707Z,-1.99
2022-12-11T03:53:39.654Z,-1.97
2022-12-11T03:56:10.141Z,-1.93
2022-12-11T03:58:38.526Z,-2.00
2022-12-11T04:01:10.173Z,-1.99
2022-12-11T04:03:40.027Z,-1.88
2022-12-11T04:06:08.474Z,-1.89
2022-12-11T04:08:36.201Z,-1.97
2022-12-11T04:11:22.727Z,-1.96
2022-12-11T04:14:11.249Z,-1.97
2022-12-11T04:16:38.397Z,-2.02
2022-12-11T04:19:24.944Z,-1.97
2022-12-11T04:22:10.353Z,-2.07
2022-12-11T04:24:38.116Z,-1.95
2022-12-11T04:27:05.890Z,-1.94
2022-12-11T04:29:33.824Z,-1.89
2022-12-11T04:32:01.693Z,-1.94
2022-12-11T04:34:31.304Z,-1.94
2022-12-11T04:36:59.334Z,-1.87
2022-12-11T04:39:27.113Z,-1.91
2022-12-11T04:41:54.919Z,-2.02
2022-12-11T04:44:22.642Z,-2.04
2022-12-11T04:46:50.532Z,-2.03
2022-12-11T04:49:18.319Z,-2.09
2022-12-11T04:51:47.419Z,-1.99
2022-12-11T04:54:15.189Z,-2.01
2022-12-11T04:56:42.938Z,-1.93
2022-12-11T04:59:10.849Z,-1.99
2022-12-11T05:01:38.621Z,-1.98
2022-12-11T05:04:06.840Z,-2.02
2022-12-11T05:06:34.600Z,-1.93
2022-12-11T05:09:04.289Z,-1.91
2022-12-11T05:11:32.086Z,-1.90
2022-12-11T05:13:59.787Z,-1.91
2022-12-11T05:16:27.669Z,-1.89
2022-12-11T05:18:55.791Z,-1.98
2022-12-11T05:21:23.566Z,-1.94
2022-12-11T05:23:51.287Z,-1.93
2022-12-11T05:26:22.219Z,-1.78
2022-12-11T05:28:53.302Z,-1.72
2022-12-11T05:31:23.188Z,-1.73
2022-12-11T05:33:51.703Z,-1.85
2022-12-11T05:36:21.920Z,-1.86
2022-12-11T05:38:50.507Z,-1.91
2022-12-11T05:41:22.051Z,-1.92
2022-12-11T05:43:49.952Z,-1.78
2022-12-11T05:46:20.572Z,-1.77
2022-12-11T05:48:51.072Z,-1.77
2022-12-11T05:51:20.283Z,-1.69
2022-12-11T05:53:50.168Z,-1.68
2022-12-11T05:56:20.211Z,-1.75
2022-12-11T05:58:50.379Z,-1.77
2022-12-11T06:01:20.642Z,-1.75
2022-12-11T06:03:48.569Z,-1.85
2022-12-11T06:06:17.092Z,-1.85
2022-12-11T06:08:44.860Z,-1.96
2022-12-11T06:11:13.941Z,-2.02
2022-12-11T06:13:41.840Z,-2.02
2022-12-11T06:16:11.159Z,-2.11
2022-12-11T06:18:39.129Z,-2.06
2022-12-11T06:21:17.607Z,-2.02
2022-12-11T06:23:46.300Z,-2.06
2022-12-11T06:26:15.659Z,-2.00
2022-12-11T06:28:43.775Z,-1.90
2022-12-11T06:31:13.556Z,-1.94
2022-12-11T06:33:43.705Z,-2.02
2022-12-11T06:36:13.326Z,-2.18
2022-12-11T06:38:41.331Z,-2.20
2022-12-11T06:41:09.684Z,-2.06
2022-12-11T06:43:40.105Z,-2.12
2022-12-11T06:46:10.230Z,-2.15
2022-12-11T06:48:40.170Z,-2.07
2022-12-11T06:51:09.098Z,-2.17
2022-12-11T06:53:37.397Z,-2.07
2022-12-11T06:56:05.872Z,-2.06
2022-12-11T06:58:35.931Z,-2.00
2022-12-11T07:01:04.966Z,-2.18
2022-12-11T07:03:33.501Z,-2.24
2022-12-11T07:06:03.462Z,-2.20
2022-12-11T07:08:32.011Z,-2.00
2022-12-11T07:11:04.424Z,-2.15
2022-12-11T07:13:32.212Z,-2.04
2022-12-11T07:16:00.276Z,-2.21
2022-12-11T07:18:28.267Z,-2.13
2022-12-11T07:20:56.078Z,-2.17
2022-12-11T07:23:25.214Z,-2.14
2022-12-11T07:25:53.708Z,-2.27
2022-12-11T07:28:21.565Z,-2.14
2022-12-11T07:30:49.312Z,-2.29
2022-12-11T07:33:17.204Z,-2.14
2022-12-11T07:35:45.246Z,-2.31
2022-12-11T07:38:13.063Z,-2.33
2022-12-11T07:40:42.140Z,-2.35
2022-12-11T07:43:09.924Z,-2.23
2022-12-11T07:45:37.700Z,-2.12
2022-12-11T07:48:05.868Z,-2.17
2022-12-11T07:50:39.483Z,-2.06
2022-12-11T07:53:07.789Z,-2.16
2022-12-11T07:55:35.561Z,-2.18
2022-12-11T07:58:04.792Z,-2.30
2022-12-11T08:00:32.516Z,-2.22
2022-12-11T08:03:00.253Z,-2.23
2022-12-11T08:05:28.049Z,-2.25
2022-12-11T08:07:55.862Z,-2.00
2022-12-11T08:10:23.646Z,-2.14
2022-12-11T08:12:51.386Z,-2.14
2022-12-11T08:15:20.560Z,-1.89
2022-12-11T08:17:49.729Z,-1.89
2022-12-11T08:20:17.604Z,-1.85
2022-12-11T08:22:45.367Z,-1.86
2022-12-11T08:25:13.500Z,-1.90
2022-12-11T08:27:41.449Z,-1.87
2022-12-11T08:30:10.511Z,-1.88
2022-12-11T08:32:39.636Z,-1.95
2022-12-11T08:35:08.677Z,-1.82
2022-12-11T08:37:36.572Z,-1.74
2022-12-11T08:40:04.762Z,-1.69
2022-12-11T08:42:32.656Z,-1.88
2022-12-11T08:45:00.424Z,-1.87
2022-12-11T08:47:28.549Z,-1.84
2022-12-11T08:49:57.884Z,-1.87
2022-12-11T08:52:25.404Z,-1.93
2022-12-11T08:54:53.108Z,-1.99
2022-12-11T08:57:20.879Z,-1.84
2022-12-11T08:59:48.625Z,-1.93
2022-12-11T09:02:16.403Z,-1.61
2022-12-11T09:04:44.148Z,-1.52
2022-12-11T09:07:13.386Z,-1.42
2022-12-11T09:09:41.161Z,-1.75
2022-12-11T09:12:08.890Z,-1.59
2022-12-11T09:14:36.646Z,-1.68
2022-12-11T09:17:05.395Z,-1.44
2022-12-11T09:19:33.171Z,-1.45
2022-12-11T09:22:01.680Z,-1.69
2022-12-11T09:24:30.824Z,-1.57
2022-12-11T09:26:58.696Z,-1.69
2022-12-11T09:29:26.381Z,-1.47
2022-12-11T09:31:54.216Z,-1.48
2022-12-11T09:34:28.684Z,-1.29
2022-12-11T09:36:57.294Z,-1.36
2022-12-11T09:39:25.311Z,-1.47
2022-12-11T09:42:03.235Z,-1.36
2022-12-11T09:44:39.281Z,-1.47
2022-12-11T09:47:20.197Z,-1.60
2022-12-11T09:49:50.791Z,-1.68
2022-12-11T09:52:21.421Z,-1.54
2022-12-11T09:54:52.112Z,-1.31
2022-12-11T09:57:32.848Z,-1.32
2022-12-11T10:00:11.347Z,-1.34
2022-12-11T10:02:51.946Z,-1.51
2022-12-11T10:05:27.635Z,-1.59
2022-12-11T10:08:07.227Z,-1.72
2022-12-11T10:10:44.399Z,-1.59
2022-12-11T10:13:25.102Z,-1.69
2022-12-11T10:15:59.043Z,-1.74
2022-12-11T10:18:30.955Z,-1.55
2022-12-11T10:21:02.395Z,-1.44
2022-12-11T10:23:35.812Z,-1.32
2022-12-11T10:26:07.964Z,-1.33
2022-12-11T10:28:37.272Z,-1.34
2022-12-11T10:31:14.492Z,-1.24
2022-12-11T10:33:55.140Z,-1.37
2022-12-11T10:36:29.636Z,-1.33
2022-12-11T10:38:57.728Z,-1.37
2022-12-11T10:41:38.012Z,-1.26
2022-12-11T10:44:17.590Z,-1.33
2022-12-11T10:46:45.663Z,-1.23
2022-12-11T10:49:24.386Z,-1.22
2022-12-11T10:51:54.141Z,-1.37
2022-12-11T10:54:31.914Z,-1.45
2022-12-11T10:57:01.496Z,-1.42
2022-12-11T10:59:37.092Z,-1.28
2022-12-11T11:02:06.775Z,-1.43
2022-12-11T11:04:37.249Z,-1.40
2022-12-11T11:07:13.537Z,-1.33
2022-12-11T11:09:41.780Z,-1.48
2022-12-11T11:12:24.308Z,-1.45
2022-12-11T11:15:05.528Z,-1.49
2022-12-11T11:17:36.244Z,-1.65
2022-12-11T11:20:15.699Z,-1.56
2022-12-11T11:22:46.790Z,-1.72
2022-12-11T11:25:20.582Z,-1.69
2022-12-11T11:27:53.422Z,-1.75
2022-12-11T11:30:25.043Z,-1.69
2022-12-11T11:32:56.144Z,-1.66
2022-12-11T11:35:27.031Z,-1.44
2022-12-11T11:38:01.263Z,-1.40
2022-12-11T11:40:31.747Z,-1.27
2022-12-11T11:43:08.991Z,-1.18
2022-12-11T11:45:44.394Z,-1.01
2022-12-11T11:48:23.845Z,-0.85
2022-12-11T11:50:53.845Z,-1.01
2022-12-11T11:53:28.074Z,-0.95
2022-12-11T11:56:04.062Z,-0.98
2022-12-11T11:58:41.028Z,-1.04
2022-12-11T12:01:16.031Z,-1.10
2022-12-11T12:03:44.303Z,-1.00
2022-12-11T12:06:19.107Z,-0.95
2022-12-11T12:08:57.149Z,-0.85
2022-12-11T12:11:33.025Z,-0.68
2022-12-11T12:14:29.090Z,-0.55
2022-12-11T12:17:13.980Z,-0.76
2022-12-11T12:19:53.084Z,-0.74
2022-12-11T12:22:38.761Z,-0.83
2022-12-11T12:25:17.524Z,-0.77
2022-12-11T12:27:53.343Z,-0.73
2022-12-11T12:30:23.649Z,-0.68
2022-12-11T12:33:08.258Z,-0.66
2022-12-11T12:35:38.195Z,-0.58
2022-12-11T12:38:12.862Z,-0.54
2022-12-11T12:40:55.581Z,-0.67
2022-12-11T12:43:42.403Z,-0.66
2022-12-11T12:46:20.037Z,-0.78
2022-12-11T12:48:51.361Z,-0.67
2022-12-11T12:51:20.104Z,-0.73
2022-12-11T12:53:59.195Z,-0.49
2022-12-11T12:56:30.231Z,-0.72
2022-12-11T12:58:57.990Z,-0.78
2022-12-11T13:01:29.557Z,-0.75
2022-12-11T13:04:02.188Z,-0.56
2022-12-11T13:06:33.757Z,-0.53
2022-12-11T13:09:14.793Z,-0.60
2022-12-11T13:11:43.038Z,-0.60
2022-12-11T13:14:27.995Z,-0.70
2022-12-11T13:17:08.884Z,-0.67
2022-12-11T13:19:42.558Z,-0.76
2022-12-11T13:22:23.845Z,-0.83
2022-12-11T13:25:01.682Z,-1.01
2022-12-11T13:27:39.412Z,-0.97
2022-12-11T13:30:21.848Z,-0.95
2022-12-11T13:32:59.876Z,-1.03
2022-12-11T13:35:29.812Z,-0.97
2022-12-11T13:38:04.202Z,-0.98
2022-12-11T13:40:39.434Z,-0.89
2022-12-11T13:43:11.186Z,-0.70
2022-12-11T13:45:45.453Z,-0.91
2022-12-11T13:48:20.973Z,-0.93
2022-12-11T13:50:51.967Z,-0.75
2022-12-11T13:53:21.252Z,-0.75
2022-12-11T13:55:58.245Z,-0.69
2022-12-11T13:58:26.650Z,-0.69
2022-12-11T14:01:03.912Z,-0.74
2022-12-11T14:03:32.526Z,-0.83
2022-12-11T14:06:03.379Z,-0.88
2022-12-11T14:08:36.503Z,-0.79
2022-12-11T14:11:05.483Z,-0.87
2022-12-11T14:13:36.360Z,-0.89
2022-12-11T14:16:05.309Z,-0.88
2022-12-11T14:18:36.417Z,-0.91
2022-12-11T14:21:07.138Z,-0.92
2022-12-11T14:23:36.414Z,-0.78
2022-12-11T14:26:16.408Z,-0.84
2022-12-11T14:28:44.945Z,-0.97
2022-12-11T14:31:17.035Z,-1.06
2022-12-11T14:33:52.821Z,-1.06
2022-12-11T14:36:22.217Z,-1.15
2022-12-11T14:38:52.334Z,-1.15
2022-12-11T14:41:24.990Z,-1.23
2022-12-11T14:43:57.709Z,-1.35
2022-12-11T14:46:32.718Z,-1.30
2022-12-11T14:49:04.601Z,-1.23
2022-12-11T14:51:41.463Z,-1.25
2022-12-11T14:54:20.476Z,-1.27
2022-12-11T14:56:48.584Z,-1.28
2022-12-11T14:59:25.510Z,-1.32
2022-12-11T15:02:00.783Z,-1.26
2022-12-11T15:04:31.344Z,-1.31
2022-12-11T15:07:01.147Z,-1.30
2022-12-11T15:09:37.220Z,-1.33
2022-12-11T15:12:12.448Z,-1.24
2022-12-11T15:14:52.405Z,-1.22
2022-12-11T15:17:21.719Z,-1.17
2022-12-11T15:19:52.077Z,-1.19
2022-12-11T15:22:25.208Z,-1.23
2022-12-11T15:24:55.051Z,-1.26
2022-12-11T15:27:31.414Z,-1.25
2022-12-11T15:29:59.620Z,-1.16
2022-12-11T15:32:27.517Z,-1.22
2022-12-11T15:34:57.270Z,-1.25
2022-12-11T15:37:28.826Z,-1.31
2022-12-11T15:39:58.406Z,-1.25
2022-12-11T15:42:28.722Z,-1.35
2022-12-11T15:44:57.061Z,-1.42
2022-12-11T15:47:26.676Z,-1.32
2022-12-11T15:49:56.128Z,-1.27
2022-12-11T15:52:23.699Z,-1.31
2022-12-11T15:54:53.086Z,-1.31
2022-12-11T15:57:22.163Z,-1.40
2022-12-11T15:59:51.152Z,-1.43
2022-12-11T16:02:19.165Z,-1.33
2022-12-11T16:04:47.138Z,-1.30
2022-12-11T16:07:18.527Z,-1.32
2022-12-11T16:09:46.330Z,-1.34
2022-12-11T16:12:15.922Z,-1.35
2022-12-11T16:14:44.212Z,-1.25
2022-12-11T16:17:13.798Z,-1.25
2022-12-11T16:19:43.083Z,-1.30
2022-12-11T16:22:13.058Z,-1.32
2022-12-11T16:24:40.986Z,-1.35
2022-12-11T16:27:10.484Z,-1.34
2022-12-11T16:29:40.791Z,-1.37
2022-12-11T16:32:09.326Z,-1.39
2022-12-11T16:34:38.512Z,-1.42
2022-12-11T16:37:06.641Z,-1.39
2022-12-11T16:39:34.676Z,-1.38
2022-12-11T16:42:02.516Z,-1.28
2022-12-11T16:44:30.272Z,-1.35
2022-12-11T16:46:59.883Z,-1.23
2022-12-11T16:49:27.777Z,-1.34
2022-12-11T16:51:55.517Z,-1.37
2022-12-11T16:54:23.275Z,-1.34
2022-12-11T16:56:51.328Z,-1.14
2022-12-11T16:59:19.138Z,-1.26
2022-12-11T17:01:46.996Z,-1.24
2022-12-11T17:04:16.207Z,-1.18
2022-12-11T17:06:44.075Z,-1.29
2022-12-11T17:09:11.988Z,-1.20
2022-12-11T17:11:39.827Z,-1.23
2022-12-11T17:14:07.640Z,-1.13
2022-12-11T17:16:35.347Z,-1.26
2022-12-11T17:19:05.272Z,-1.35
2022-12-11T17:21:34.528Z,-1.41
2022-12-11T17:24:02.655Z,-1.46
2022-12-11T17:26:30.593Z,-1.57
2022-12-11T17:28:58.649Z,-1.48
2022-12-11T17:31:26.498Z,-1.57
2022-12-11T17:33:54.923Z,-1.52
2022-12-11T17:36:23.268Z,-1.59
2022-12-11T17:38:52.485Z,-1.45
2022-12-11T17:41:21.827Z,-1.53
2022-12-11T17:43:50.572Z,-1.50
2022-12-11T17:46:19.435Z,-1.59
2022-12-11T17:48:47.667Z,-1.59
2022-12-11T17:51:21.028Z,-1.68
2022-12-11T17:53:57.822Z,-1.63
2022-12-11T17:56:26.769Z,-1.67
2022-12-11T17:58:54.583Z,-1.65
2022-12-11T18:01:28.777Z,-1.76
2022-12-11T18:04:02.976Z,-1.83
2022-12-11T18:06:38.928Z,-1.69
2022-12-11T18:09:13.075Z,-1.71
2022-12-11T18:11:44.683Z,-1.82
2022-12-11T18:14:19.007Z,-1.76
2022-12-11T18:16:50.273Z,-1.81
2022-12-11T18:19:23.364Z,-1.88
2022-12-11T18:22:03.810Z,-1.84
2022-12-11T18:24:46.179Z,-1.85
2022-12-11T18:27:17.567Z,-1.83
2022-12-11T18:29:48.593Z,-1.93
2022-12-11T18:32:20.418Z,-1.90
2022-12-11T18:34:48.302Z,-1.88
2022-12-11T18:37:16.041Z,-1.81
2022-12-11T18:39:45.248Z,-1.95
2022-12-11T18:45:00.834Z,-1.94
2022-12-11T18:47:28.720Z,-2.02
2022-12-11T18:49:56.573Z,-1.99
2022-12-11T18:52:24.417Z,-2.04
2022-12-11T18:54:53.551Z,-2.03
2022-12-11T18:57:21.665Z,-1.98
2022-12-11T18:59:53.010Z,-2.02
2022-12-11T19:02:20.944Z,-1.95
2022-12-11T19:04:48.809Z,-2.03
2022-12-11T19:07:16.527Z,-2.00
2022-12-11T19:09:48.044Z,-2.01
2022-12-11T19:12:19.131Z,-1.97
2022-12-11T19:14:46.958Z,-1.94
2022-12-11T19:17:14.665Z,-2.03
2022-12-11T19:19:43.165Z,-1.99
2022-12-11T19:22:10.979Z,-1.99
2022-12-11T19:24:38.776Z,-1.96
2022-12-11T19:27:13.079Z,-1.98
2022-12-11T19:29:42.857Z,-1.94
2022-12-11T19:32:10.669Z,-1.88
2022-12-11T19:34:39.473Z,-1.88
2022-12-11T19:37:07.357Z,-1.90
2022-12-11T19:39:35.188Z,-1.93
2022-12-11T19:42:02.929Z,-1.97
2022-12-11T19:44:30.795Z,-1.93
2022-12-11T19:46:59.910Z,-1.97
2022-12-11T19:49:27.713Z,-2.05
2022-12-11T19:51:55.582Z,-2.13
2022-12-11T19:54:23.425Z,-2.07
2022-12-11T19:56:51.667Z,-2.02
2022-12-11T19:59:19.676Z,-1.91
2022-12-11T20:01:48.060Z,-1.99
2022-12-11T20:04:18.729Z,-1.96
2022-12-11T20:06:48.286Z,-1.98
2022-12-11T20:09:16.268Z,-2.07
2022-12-11T20:11:45.685Z,-1.99
2022-12-11T20:14:17.774Z,-1.95
2022-12-11T20:17:09.230Z,-1.85
2022-12-11T20:19:35.513Z,-1.88
2022-12-11T20:22:03.479Z,-1.86
2022-12-11T20:24:31.984Z,-1.97
2022-12-11T20:27:00.135Z,-1.97
2022-12-11T20:29:27.999Z,-2.08
2022-12-11T20:31:55.839Z,-2.07
2022-12-11T20:34:23.691Z,-2.01
2022-12-11T20:36:53.030Z,-2.00
2022-12-11T20:39:20.600Z,-1.96
2022-12-11T20:41:48.493Z,-1.82
2022-12-11T20:44:16.337Z,-1.89
2022-12-11T20:46:44.312Z,-1.73
2022-12-11T20:49:13.189Z,-1.78
2022-12-11T20:51:41.929Z,-1.67
2022-12-11T20:54:11.458Z,-1.69
2022-12-11T20:56:39.186Z,-1.73
2022-12-11T20:59:07.078Z,-1.80
2022-12-11T21:01:34.919Z,-1.93
2022-12-11T21:04:03.088Z,-1.94
2022-12-11T21:06:33.378Z,-1.76
2022-12-11T21:09:02.555Z,-1.89
2022-12-11T21:11:31.749Z,-1.88
2022-12-11T21:14:00.781Z,-1.84
2022-12-11T21:16:28.905Z,-1.84
2022-12-11T21:18:57.408Z,-1.83
2022-12-11T21:21:25.849Z,-1.94
2022-12-11T21:23:53.850Z,-1.86
2022-12-11T21:26:21.822Z,-1.87
2022-12-11T21:28:51.132Z,-1.80
2022-12-11T21:31:20.363Z,-1.96
2022-12-11T21:33:48.761Z,-1.95
2022-12-11T21:36:17.586Z,-1.98
2022-12-11T21:38:46.814Z,-1.93
2022-12-11T21:41:16.428Z,-2.01
2022-12-11T21:46:35.038Z,-1.96
2022-12-11T21:49:02.869Z,-1.99
2022-12-11T21:51:37.706Z,-2.05
2022-12-11T21:54:09.111Z,-1.99
2022-12-11T21:56:37.405Z,-1.98
2022-12-11T21:59:05.266Z,-1.99
2022-12-11T22:01:38.188Z,-2.01
2022-12-11T22:04:06.655Z,-1.92
2022-12-11T22:06:35.085Z,-1.96
2022-12-11T22:09:03.192Z,-1.95
2022-12-11T22:11:35.942Z,-1.91
2022-12-11T22:14:04.041Z,-1.96
2022-12-11T22:16:31.957Z,-1.95
2022-12-11T22:19:01.349Z,-1.88
2022-12-11T22:21:29.016Z,-1.92
2022-12-11T22:23:56.818Z,-1.95
2022-12-11T22:26:26.504Z,-2.06
2022-12-11T22:28:54.643Z,-2.00
2022-12-11T22:31:26.690Z,-1.96
2022-12-11T22:33:55.985Z,-1.96
2022-12-11T22:36:26.450Z,-2.03
2022-12-11T22:38:54.507Z,-2.04
2022-12-11T22:41:25.504Z,-1.97
2022-12-11T22:43:54.106Z,-1.88
2022-12-11T22:46:24.059Z,-1.90
2022-12-11T22:48:52.100Z,-1.86
2022-12-11T22:51:20.168Z,-1.83
2022-12-11T22:53:49.349Z,-1.79
2022-12-11T22:56:17.571Z,-1.80
2022-12-11T22:58:45.391Z,-1.64
2022-12-11T23:01:15.559Z,-1.65
2022-12-11T23:03:43.420Z,-1.67
2022-12-11T23:06:13.801Z,-1.70
2022-12-11T23:08:42.748Z,-1.91
2022-12-11T23:11:14.396Z,-1.79
2022-12-11T23:13:42.235Z,-1.90
2022-12-11T23:16:10.847Z,-1.97
2022-12-11T23:18:39.400Z,-2.01
2022-12-11T23:21:08.209Z,-2.01
2022-12-11T23:23:36.276Z,-2.03
2022-12-11T23:26:04.925Z,-2.05
2022-12-11T23:28:34.120Z,-2.06
2022-12-11T23:31:01.994Z,-2.04
2022-12-11T23:33:29.838Z,-2.04
2022-12-11T23:35:58.571Z,-2.08
2022-12-11T23:38:27.238Z,-2.00
2022-12-11T23:40:55.103Z,-1.96
2022-12-11T23:43:23.503Z,-1.95
2022-12-11T23:45:52.665Z,-1.92
2022-12-11T23:48:20.697Z,-1.88
2022-12-11T23:50:48.526Z,-1.82
2022-12-11T23:53:16.659Z,-1.87
2022-12-11T23:55:46.299Z,-1.84
2022-12-11T23:58:14.138Z,-1.80
